Time;durP1;ratioP1;P1;durP2;ratioP2;P2;SDS_P1;SDS_P2;PMS_P1;PMS_P2;Temp;Humidity;BMP_temperature;BMP_pressure;BME280_temperature;BME280_humidity;BME280_pressure;Samples;Min_cycle;Max_cycle;Signal;HPM_P1;HPM_P2
2021/01/23 02:31:55;;;;;;;8.00;4.70;;;2.50;99.90;;;;;;4911048;29;20434;-90
2021/01/23 02:42:42;;;;;;;;;;;;;;;;;;;;;
2021/01/23 02:45:34;;;;;;;9.50;6.80;;;2.60;99.90;;;;;;4947137;28;20179;-90
2021/01/23 02:48:54;;;;;;;8.60;6.10;;;2.60;99.90;;;;;;4893111;28;20431;-88
2021/01/23 02:57:40;;;;;;;12.57;7.73;;;2.70;99.90;;;;;;5092203;23;20492;-89
2021/01/23 03:00:39;;;;;;;9.27;5.80;;;2.70;99.90;;;;;;4907832;29;20489;-86
2021/01/23 03:03:09;;;;;;;12.60;7.57;;;2.70;99.90;;;;;;4869490;29;20997;-87
2021/01/23 03:09:33;;;;;;;10.23;7.00;;;2.80;99.90;;;;;;4909441;29;20726;-87
2021/01/23 03:12:21;;;;;;;13.13;6.90;;;2.80;99.90;;;;;;4891760;29;20449;-89
2021/01/23 03:14:55;;;;;;;10.60;6.70;;;2.80;99.90;;;;;;4886085;29;20452;-88
2021/01/23 03:17:24;;;;;;;11.27;6.73;;;2.80;99.90;;;;;;4907196;29;20860;-89
2021/01/23 03:20:01;;;;;;;11.90;7.10;;;2.90;99.90;;;;;;4888447;29;20428;-86
2021/01/23 03:22:33;;;;;;;11.23;8.00;;;2.90;99.90;;;;;;4873958;29;20484;-87
2021/01/23 03:25:05;;;;;;;8.07;6.43;;;2.90;99.90;;;;;;4895269;29;20433;-88
2021/01/23 03:27:37;;;;;;;11.73;8.10;;;2.90;99.90;;;;;;4890309;29;20441;-88
2021/01/23 03:30:18;;;;;;;11.93;7.57;;;2.90;99.90;;;;;;4893366;29;20439;-86
2021/01/23 03:32:44;;;;;;;9.87;7.53;;;2.90;99.90;;;;;;4889556;29;20468;-88
2021/01/23 03:35:17;;;;;;;10.27;7.03;;;3.00;99.90;;;;;;4908240;29;20444;-88
2021/01/23 03:37:46;;;;;;;10.57;6.37;;;3.00;99.90;;;;;;4891532;29;20451;-88
2021/01/23 03:40:12;;;;;;;12.63;7.30;;;3.00;99.90;;;;;;4892607;29;20543;-86
2021/01/23 03:42:38;;;;;;;12.13;7.77;;;3.00;99.90;;;;;;4894691;29;22205;-88
2021/01/23 03:45:09;;;;;;;10.30;6.67;;;3.10;99.90;;;;;;4892891;29;20984;-88
2021/01/23 03:47:39;;;;;;;13.67;8.27;;;3.10;99.90;;;;;;4896393;29;20476;-86
2021/01/23 03:50:07;;;;;;;11.83;7.83;;;3.10;99.90;;;;;;4892616;29;21135;-87
2021/01/23 03:52:33;;;;;;;12.40;8.83;;;3.10;99.90;;;;;;4893093;29;22328;-88
2021/01/23 03:54:59;;;;;;;9.63;7.13;;;3.10;99.90;;;;;;4893929;29;20512;-89
2021/01/23 03:57:28;;;;;;;10.07;5.97;;;3.10;99.90;;;;;;4892859;29;20576;-88
2021/01/23 03:59:54;;;;;;;14.07;8.77;;;3.10;99.90;;;;;;4879515;29;20445;-87
2021/01/23 04:02:22;;;;;;;11.17;8.17;;;3.10;99.90;;;;;;4895007;29;20612;-87
2021/01/23 04:04:51;;;;;;;15.23;8.67;;;3.10;99.90;;;;;;4894897;29;20954;-85
2021/01/23 04:07:17;;;;;;;10.63;6.27;;;3.10;99.90;;;;;;4892881;29;21000;-87
2021/01/23 04:09:43;;;;;;;11.07;7.20;;;3.10;99.90;;;;;;4893839;29;20444;-89
2021/01/23 04:12:09;;;;;;;14.00;8.37;;;3.10;99.90;;;;;;4895536;29;20826;-89
2021/01/23 04:14:35;;;;;;;11.97;7.70;;;3.10;99.90;;;;;;4891767;29;20448;-88
2021/01/23 04:17:03;;;;;;;12.27;7.40;;;3.10;99.90;;;;;;4876270;29;20452;-89
2021/01/23 04:19:29;;;;;;;8.03;5.60;;;3.00;99.90;;;;;;4877702;29;20484;-88
2021/01/23 04:21:58;;;;;;;10.67;7.33;;;3.00;99.90;;;;;;4898299;29;20512;-87
2021/01/23 04:24:39;;;;;;;9.63;6.57;;;3.00;99.90;;;;;;4895762;29;20235;-87
2021/01/23 04:27:10;;;;;;;12.83;5.90;;;3.00;99.90;;;;;;4914610;29;20518;-87
2021/01/23 04:29:36;;;;;;;9.10;6.20;;;2.90;99.90;;;;;;4893206;29;20725;-87
2021/01/23 04:32:02;;;;;;;7.87;5.07;;;2.90;99.90;;;;;;4898278;29;20429;-87
2021/01/23 04:34:32;;;;;;;8.70;5.77;;;2.90;99.90;;;;;;4896747;29;20464;-88
2021/01/23 04:36:58;;;;;;;8.37;5.60;;;2.90;99.90;;;;;;4896858;29;20465;-88
2021/01/23 04:39:29;;;;;;;4.57;4.13;;;2.90;99.90;;;;;;4912375;29;20429;-89
2021/01/23 04:42:03;;;;;;;9.10;4.50;;;3.00;99.90;;;;;;4895818;29;20441;-89
2021/01/23 04:44:29;;;;;;;4.80;4.07;;;3.00;99.90;;;;;;4893731;29;20479;-87
2021/01/23 04:46:55;;;;;;;7.67;4.10;;;3.10;99.90;;;;;;4909560;29;20523;-88
2021/01/23 04:49:24;;;;;;;4.53;3.33;;;3.10;99.90;;;;;;4877810;29;20184;-87
2021/01/23 04:51:53;;;;;;;2.97;2.67;;;3.10;99.90;;;;;;4890123;29;20451;-85
2021/01/23 04:54:19;;;;;;;2.87;2.30;;;3.10;99.90;;;;;;4908983;29;20511;-87
2021/01/23 04:56:48;;;;;;;2.73;1.93;;;3.20;99.90;;;;;;4894262;29;20449;-87
2021/01/23 04:59:13;;;;;;;2.70;2.33;;;3.20;99.90;;;;;;4894122;29;20268;-86
2021/01/23 05:01:42;;;;;;;4.40;3.20;;;3.30;99.90;;;;;;4910166;29;20895;-89
2021/01/23 05:04:08;;;;;;;2.40;2.20;;;3.30;99.90;;;;;;4895188;29;20224;-87
2021/01/23 05:06:34;;;;;;;2.07;1.87;;;3.30;99.90;;;;;;4877431;29;20459;-88
2021/01/23 05:09:00;;;;;;;2.30;2.10;;;3.40;99.90;;;;;;4878409;29;20489;-87
2021/01/23 05:11:48;;;;;;;4.73;2.83;;;3.40;99.90;;;;;;4880629;29;20193;-89
2021/01/23 05:14:17;;;;;;;2.30;1.80;;;3.40;99.90;;;;;;4907304;29;20581;-87
2021/01/23 05:16:43;;;;;;;2.23;2.03;;;3.40;99.90;;;;;;4896270;29;20447;-86
2021/01/23 05:19:11;;;;;;;2.27;2.00;;;3.40;99.90;;;;;;4913286;29;20792;-89
2021/01/23 05:21:37;;;;;;;2.37;2.17;;;3.40;99.90;;;;;;4891071;29;20515;-85
2021/01/23 05:24:13;;;;;;;3.67;2.63;;;3.40;99.90;;;;;;4878467;29;20496;-87
2021/01/23 05:26:40;;;;;;;3.60;2.57;;;3.50;99.90;;;;;;4909308;29;20439;-86
2021/01/23 05:29:19;;;;;;;3.10;2.40;;;3.50;99.90;;;;;;4895786;29;20510;-87
2021/01/23 05:31:45;;;;;;;3.87;2.37;;;3.50;99.90;;;;;;4908118;29;20491;-88
2021/01/23 05:34:30;;;;;;;2.20;1.93;;;3.40;99.90;;;;;;4895563;29;20464;-85
2021/01/23 05:36:57;;;;;;;2.87;2.47;;;3.50;99.90;;;;;;4908745;29;20193;-86
2021/01/23 05:39:51;;;;;;;3.30;2.20;;;3.50;99.90;;;;;;4911502;29;20452;-86
2021/01/23 05:42:20;;;;;;;3.73;2.20;;;3.50;99.90;;;;;;4912655;29;20532;-87
2021/01/23 05:45:05;;;;;;;3.20;2.17;;;3.50;99.90;;;;;;4877285;29;20951;-85
2021/01/23 05:47:31;;;;;;;3.43;2.90;;;3.40;99.90;;;;;;4915869;29;21045;-88
2021/01/23 05:49:57;;;;;;;2.20;1.80;;;3.40;99.90;;;;;;4920416;29;20430;-87
2021/01/23 05:52:22;;;;;;;2.70;2.37;;;3.40;99.90;;;;;;4885382;29;20197;-88
2021/01/23 05:54:49;;;;;;;2.73;1.60;;;3.40;99.90;;;;;;4895286;29;20243;-87
2021/01/23 05:57:15;;;;;;;2.70;2.00;;;3.40;99.90;;;;;;4893663;29;20629;-86
2021/01/23 05:59:42;;;;;;;3.10;2.60;;;3.40;99.90;;;;;;4894327;29;20431;-87
2021/01/23 06:02:11;;;;;;;2.70;2.03;;;3.40;99.90;;;;;;4891945;29;20521;-87
2021/01/23 06:04:42;;;;;;;2.77;2.50;;;3.40;99.90;;;;;;4895303;29;20472;-86
2021/01/23 06:07:09;;;;;;;4.40;3.17;;;3.30;99.90;;;;;;4892596;29;20429;-88
2021/01/23 06:09:36;;;;;;;4.03;2.77;;;3.30;99.90;;;;;;4878327;29;20429;-89
2021/01/23 06:12:03;;;;;;;2.83;2.60;;;3.40;99.90;;;;;;4894188;29;20441;-86
2021/01/23 06:14:41;;;;;;;4.47;3.10;;;3.40;99.90;;;;;;4876937;29;21229;-86
2021/01/23 06:17:07;;;;;;;2.90;2.47;;;3.40;99.90;;;;;;4905454;29;20426;-88
2021/01/23 06:19:33;;;;;;;3.30;3.00;;;3.40;99.90;;;;;;4877456;29;20859;-85
2021/01/23 06:21:58;;;;;;;5.53;2.77;;;3.30;99.90;;;;;;4906805;29;20794;-86
2021/01/23 06:24:30;;;;;;;3.07;2.40;;;3.30;99.90;;;;;;4891437;29;20212;-87
2021/01/23 06:26:59;;;;;;;3.60;2.83;;;3.40;99.90;;;;;;4890680;29;20193;-87
2021/01/23 06:29:32;;;;;;;4.53;2.93;;;3.40;99.90;;;;;;4889842;29;20870;-89
2021/01/23 06:32:13;;;;;;;2.90;2.60;;;3.50;99.90;;;;;;4905140;29;20441;-88
2021/01/23 06:35:00;;;;;;;3.60;2.70;;;3.50;99.90;;;;;;4891043;29;20455;-87
2021/01/23 06:37:37;;;;;;;3.50;2.47;;;3.50;99.90;;;;;;4890262;29;20428;-86
2021/01/23 06:40:33;;;;;;;3.87;3.20;;;3.60;99.90;;;;;;4891085;29;20448;-88
2021/01/23 06:43:05;;;;;;;3.43;2.70;;;3.60;99.90;;;;;;4880994;29;20476;-86
2021/01/23 06:45:35;;;;;;;3.60;2.80;;;3.60;99.90;;;;;;4908204;29;20442;-88
2021/01/23 06:48:03;;;;;;;3.77;2.80;;;3.70;99.90;;;;;;4900336;29;20493;-89
2021/01/23 06:50:39;;;;;;;4.70;2.70;;;3.70;99.90;;;;;;4899474;29;20504;-85
2021/01/23 06:53:18;;;;;;;3.63;2.77;;;3.60;99.90;;;;;;4892563;29;20444;-86
2021/01/23 06:55:49;;;;;;;3.50;3.00;;;3.70;99.90;;;;;;4905922;29;20443;-87
2021/01/23 06:58:29;;;;;;;3.90;2.60;;;3.70;99.90;;;;;;4892551;29;20752;-85
2021/01/23 07:00:59;;;;;;;3.93;3.50;;;3.80;99.90;;;;;;4909018;29;20895;-88
2021/01/23 07:03:30;;;;;;;3.73;3.10;;;3.80;99.90;;;;;;4878149;29;20570;-87
2021/01/23 07:06:01;;;;;;;3.07;2.77;;;3.80;99.90;;;;;;4905810;29;20871;-88
2021/01/23 07:08:40;;;;;;;5.70;3.00;;;3.80;99.90;;;;;;4890595;29;20429;-87
2021/01/23 07:11:18;;;;;;;5.70;3.40;;;3.80;99.90;;;;;;4893559;29;20431;-87
2021/01/23 07:14:07;;;;;;;4.73;3.17;;;3.80;99.90;;;;;;4874391;29;20472;-87
2021/01/23 07:16:34;;;;;;;3.50;3.10;;;3.90;99.90;;;;;;4896091;29;20491;-86
2021/01/23 07:19:06;;;;;;;3.93;3.27;;;3.90;99.90;;;;;;4896353;29;20496;-87
2021/01/23 07:21:39;;;;;;;4.60;3.77;;;3.90;99.90;;;;;;4896028;29;20478;-87
2021/01/23 07:24:07;;;;;;;3.70;3.40;;;4.00;99.90;;;;;;4898053;29;20508;-89
2021/01/23 07:26:34;;;;;;;5.43;3.73;;;4.00;99.90;;;;;;4895619;29;20463;-87
2021/01/23 07:29:02;;;;;;;3.33;2.97;;;3.90;99.90;;;;;;4916929;29;20785;-88
2021/01/23 07:31:33;;;;;;;4.73;3.40;;;4.00;99.90;;;;;;4899596;29;20524;-90
2021/01/23 07:34:00;;;;;;;4.07;3.07;;;4.00;99.90;;;;;;4883704;29;20499;-87
2021/01/23 07:36:30;;;;;;;5.07;3.70;;;4.10;99.90;;;;;;4899161;29;20447;-87
2021/01/23 07:38:56;;;;;;;3.70;2.70;;;4.10;99.90;;;;;;4894923;29;20445;-87
2021/01/23 07:41:22;;;;;;;3.60;3.30;;;4.10;99.90;;;;;;4900459;29;20539;-87
2021/01/23 07:43:49;;;;;;;4.13;3.53;;;4.00;99.90;;;;;;4896004;29;20491;-88
2021/01/23 07:46:15;;;;;;;4.80;4.13;;;4.00;99.90;;;;;;4899602;29;20423;-87
2021/01/23 07:48:44;;;;;;;3.97;3.53;;;4.00;99.90;;;;;;4879933;29;20790;-86
2021/01/23 07:51:31;;;;;;;5.00;3.40;;;4.10;99.90;;;;;;4899442;29;20535;-87
2021/01/23 07:54:22;;;;;;;5.33;4.47;;;4.30;99.90;;;;;;4914828;29;20449;-90
2021/01/23 07:57:01;;;;;;;5.20;3.77;;;4.40;99.90;;;;;;4911564;29;21053;-87
2021/01/23 07:59:46;;;;;;;3.93;3.53;;;4.40;99.90;;;;;;4898572;29;20428;-88
2021/01/23 08:02:18;;;;;;;4.70;3.53;;;4.40;99.90;;;;;;4896432;29;20453;-89
2021/01/23 08:04:56;;;;;;;3.87;3.30;;;4.40;99.90;;;;;;4915774;29;20440;-88
2021/01/23 08:07:32;;;;;;;6.20;4.07;;;4.50;99.90;;;;;;4896290;29;20464;-87
2021/01/23 08:10:24;;;;;;;5.57;4.40;;;4.50;99.90;;;;;;4895292;29;20684;-87
2021/01/23 08:13:01;;;;;;;4.20;3.40;;;4.50;99.90;;;;;;4899359;29;21107;-87
2021/01/23 08:15:29;;;;;;;5.07;3.67;;;4.50;99.90;;;;;;4896713;29;20715;-85
2021/01/23 08:18:02;;;;;;;4.10;3.57;;;4.40;99.90;;;;;;4897973;29;20452;-86
2021/01/23 08:20:38;;;;;;;4.33;3.47;;;4.50;99.90;;;;;;4881850;29;20443;-88
2021/01/23 08:23:09;;;;;;;4.53;3.80;;;4.50;99.90;;;;;;4912357;29;20552;-86
2021/01/23 08:25:42;;;;;;;4.60;3.20;;;4.40;99.90;;;;;;4894154;29;21107;-87
2021/01/23 08:28:08;;;;;;;4.97;3.30;;;4.30;99.90;;;;;;4912316;29;20432;-86
2021/01/23 08:30:35;;;;;;;4.60;2.90;;;4.40;99.90;;;;;;4903266;29;20488;-87
2021/01/23 08:33:03;;;;;;;3.40;2.97;;;4.40;99.90;;;;;;4918009;29;20584;-85
2021/01/23 08:35:31;;;;;;;4.93;3.83;;;4.30;99.90;;;;;;4922462;29;21167;-88
2021/01/23 08:37:57;;;;;;;5.80;3.33;;;4.30;99.90;;;;;;4923074;29;20468;-84
2021/01/23 08:40:23;;;;;;;3.80;3.40;;;4.50;99.90;;;;;;4925401;29;20421;-89
2021/01/23 08:42:50;;;;;;;4.33;3.70;;;4.60;99.90;;;;;;4922221;29;20351;-86
2021/01/23 08:45:18;;;;;;;5.30;3.83;;;4.70;99.90;;;;;;4902115;29;20671;-86
2021/01/23 08:47:51;;;;;;;3.30;2.83;;;4.80;99.90;;;;;;4900447;29;20457;-89
2021/01/23 08:50:22;;;;;;;3.97;3.30;;;5.00;99.90;;;;;;4912413;29;20436;-87
2021/01/23 08:52:49;;;;;;;4.77;3.60;;;5.10;99.90;;;;;;4900279;29;20520;-87
2021/01/23 08:55:15;;;;;;;7.80;3.60;;;5.10;99.90;;;;;;4913774;29;20456;-86
2021/01/23 08:57:41;;;;;;;5.00;3.20;;;5.10;99.90;;;;;;4893683;29;20463;-85
2021/01/23 09:00:08;;;;;;;5.23;4.40;;;5.00;99.90;;;;;;4895694;29;20201;-86
2021/01/23 09:02:34;;;;;;;3.40;3.10;;;5.00;99.90;;;;;;4908047;29;20221;-84
2021/01/23 09:05:10;;;;;;;5.03;3.83;;;5.00;99.90;;;;;;4894610;29;20518;-90
2021/01/23 09:07:38;;;;;;;7.63;3.20;;;5.10;99.90;;;;;;4916712;29;20200;-88
2021/01/23 09:10:13;;;;;;;6.60;3.73;;;5.10;99.90;;;;;;4883465;29;20456;-88
2021/01/23 09:12:47;;;;;;;7.43;3.70;;;5.10;99.90;;;;;;4911071;29;20436;-87
2021/01/23 09:15:20;;;;;;;4.50;3.47;;;5.10;99.90;;;;;;4915725;29;20432;-89
2021/01/23 09:17:48;;;;;;;4.27;3.70;;;5.10;99.90;;;;;;4912925;29;20475;-86
2021/01/23 09:20:32;;;;;;;5.50;3.97;;;5.10;99.90;;;;;;4914140;29;20460;-86
2021/01/23 09:22:58;;;;;;;6.27;3.70;;;5.20;99.90;;;;;;4906289;29;20490;-88
2021/01/23 09:25:24;;;;;;;5.90;4.10;;;5.20;99.90;;;;;;4895564;29;20440;-87
2021/01/23 09:27:57;;;;;;;9.00;4.37;;;5.20;99.90;;;;;;4911646;29;20181;-90
2021/01/23 09:30:22;;;;;;;5.57;3.83;;;5.20;99.90;;;;;;4897768;29;20460;-88
2021/01/23 09:32:54;;;;;;;5.10;3.80;;;5.20;99.90;;;;;;4899223;29;20472;-88
2021/01/23 09:35:20;;;;;;;5.00;3.67;;;5.10;99.90;;;;;;4889331;29;20206;-88
2021/01/23 09:37:45;;;;;;;5.23;3.50;;;5.10;99.90;;;;;;4891414;29;20428;-86
2021/01/23 09:40:17;;;;;;;5.10;3.50;;;5.20;99.90;;;;;;4895428;29;20195;-90
2021/01/23 09:42:42;;;;;;;3.80;3.43;;;5.20;99.90;;;;;;4892707;29;20216;-86
2021/01/23 09:45:08;;;;;;;4.60;3.47;;;5.20;99.90;;;;;;4897576;29;20479;-84
2021/01/23 09:47:34;;;;;;;6.07;4.17;;;5.30;99.90;;;;;;4900040;29;20204;-86
2021/01/23 09:50:02;;;;;;;3.87;3.07;;;5.40;99.90;;;;;;4905946;29;20437;-88
2021/01/23 09:52:31;;;;;;;4.40;4.00;;;5.40;99.90;;;;;;4906061;29;20197;-87
2021/01/23 09:54:56;;;;;;;4.17;3.70;;;5.50;99.90;;;;;;4908871;29;20483;-87
2021/01/23 09:57:22;;;;;;;4.83;3.13;;;5.60;99.90;;;;;;4887744;29;20821;-86
2021/01/23 09:59:48;;;;;;;8.03;3.80;;;5.60;99.90;;;;;;4899315;29;20200;-85
2021/01/23 10:02:14;;;;;;;6.60;3.90;;;5.70;99.90;;;;;;4884859;29;21569;-88
2021/01/23 10:04:39;;;;;;;5.20;3.60;;;5.70;99.90;;;;;;4904685;29;20216;-85
2021/01/23 10:07:05;;;;;;;3.90;3.20;;;5.80;99.90;;;;;;4890997;29;20198;-84
2021/01/23 10:09:31;;;;;;;4.67;3.53;;;5.80;99.90;;;;;;4887058;29;20422;-88
2021/01/23 10:11:57;;;;;;;4.80;3.73;;;5.90;99.90;;;;;;4875330;29;20201;-85
2021/01/23 10:14:25;;;;;;;4.33;3.37;;;6.10;99.90;;;;;;4911533;29;20263;-86
2021/01/23 10:16:51;;;;;;;2.83;2.63;;;6.30;99.90;;;;;;4894624;29;20472;-84
2021/01/23 10:19:17;;;;;;;3.07;2.77;;;6.30;99.90;;;;;;4910048;29;20486;-84
2021/01/23 10:21:42;;;;;;;3.20;2.90;;;6.30;99.90;;;;;;4891489;29;20532;-84
2021/01/23 10:24:10;;;;;;;4.47;2.60;;;6.20;99.90;;;;;;4901643;29;20235;-84
2021/01/23 10:26:36;;;;;;;3.17;2.57;;;6.20;99.90;;;;;;4903868;29;20191;-83
2021/01/23 10:29:01;;;;;;;6.37;2.73;;;6.20;99.90;;;;;;4900976;29;20447;-85
2021/01/23 10:31:27;;;;;;;2.87;2.57;;;6.30;99.90;;;;;;4908867;29;20791;-86
2021/01/23 10:33:53;;;;;;;2.50;2.30;;;6.40;99.90;;;;;;4910214;29;20280;-86
2021/01/23 10:36:19;;;;;;;3.30;2.60;;;6.40;99.90;;;;;;4910611;29;20208;-85
2021/01/23 10:38:45;;;;;;;2.77;2.43;;;6.50;99.90;;;;;;4899655;29;20220;-85
2021/01/23 10:41:10;;;;;;;9.80;2.73;;;6.60;99.90;;;;;;4892688;29;20468;-85
2021/01/23 10:43:39;;;;;;;4.27;3.03;;;6.70;99.90;;;;;;4906748;29;20484;-87
2021/01/23 10:46:05;;;;;;;3.73;3.10;;;6.80;99.90;;;;;;4907395;29;20627;-85
2021/01/23 10:48:30;;;;;;;4.10;2.80;;;6.90;99.90;;;;;;4904679;29;20525;-83
2021/01/23 10:50:57;;;;;;;4.33;2.63;;;6.90;99.90;;;;;;4903894;29;20684;-85
2021/01/23 10:53:22;;;;;;;3.63;2.87;;;6.90;99.90;;;;;;4878232;29;20243;-86
2021/01/23 10:55:51;;;;;;;3.10;2.80;;;7.00;99.90;;;;;;4903660;29;20895;-84
2021/01/23 10:58:17;;;;;;;2.67;2.20;;;7.10;99.90;;;;;;4875719;29;20208;-83
2021/01/23 11:00:46;;;;;;;2.97;2.13;;;7.20;99.90;;;;;;4876696;29;20457;-86
2021/01/23 11:03:11;;;;;;;3.80;2.50;;;7.20;99.90;;;;;;4902910;29;20220;-88
2021/01/23 11:05:38;;;;;;;5.47;2.97;;;7.10;99.90;;;;;;4906296;29;20437;-85
2021/01/23 11:08:04;;;;;;;3.50;2.50;;;7.20;99.90;;;;;;4900444;29;20197;-86
2021/01/23 11:10:30;;;;;;;2.30;1.80;;;7.20;99.90;;;;;;4889563;29;20488;-86
2021/01/23 11:12:55;;;;;;;3.63;2.13;;;7.40;99.90;;;;;;4905125;29;20464;-85
2021/01/23 11:15:21;;;;;;;8.43;2.60;;;7.50;99.90;;;;;;4905295;29;20259;-84
2021/01/23 11:17:46;;;;;;;3.20;2.27;;;7.60;99.90;;;;;;4888361;29;20208;-85
2021/01/23 11:20:13;;;;;;;3.57;2.10;;;7.70;99.90;;;;;;4915264;29;20195;-85
2021/01/23 11:22:38;;;;;;;2.80;2.50;;;7.70;99.90;;;;;;4898640;29;20267;-84
2021/01/23 11:25:05;;;;;;;4.07;2.33;;;7.70;99.90;;;;;;4900958;29;20446;-83
2021/01/23 11:27:30;;;;;;;2.70;2.20;;;7.80;99.90;;;;;;4905044;29;20200;-81
2021/01/23 11:29:59;;;;;;;1.90;1.70;;;7.90;99.90;;;;;;4900594;29;20446;-83
2021/01/23 11:32:25;;;;;;;2.30;2.03;;;8.00;99.90;;;;;;4903776;29;20480;-85
2021/01/23 11:34:51;;;;;;;2.70;2.27;;;8.20;99.90;;;;;;4914263;29;20484;-84
2021/01/23 11:37:17;;;;;;;3.00;2.70;;;8.30;99.90;;;;;;4912819;29;20212;-83
2021/01/23 11:39:43;;;;;;;4.27;2.20;;;8.40;99.90;;;;;;4909685;29;20432;-86
2021/01/23 11:42:09;;;;;;;2.93;2.50;;;8.50;99.90;;;;;;4911880;29;20877;-86
2021/01/23 11:44:35;;;;;;;2.43;2.03;;;8.70;99.90;;;;;;4870517;29;20221;-84
2021/01/23 11:47:00;;;;;;;2.40;1.97;;;8.80;99.90;;;;;;4889523;29;20478;-84
2021/01/23 11:49:26;;;;;;;2.40;2.20;;;8.60;99.90;;;;;;4871151;29;20691;-86
2021/01/23 11:51:52;;;;;;;4.03;2.10;;;8.60;99.90;;;;;;4907413;29;20275;-84
2021/01/23 11:54:17;;;;;;;2.47;2.27;;;8.70;99.90;;;;;;4908013;29;20221;-84
2021/01/23 11:56:43;;;;;;;3.77;2.30;;;8.80;99.90;;;;;;4912794;29;20197;-86
2021/01/23 11:59:11;;;;;;;3.63;2.20;;;8.80;99.90;;;;;;4910543;29;20223;-85
2021/01/23 12:01:37;;;;;;;2.87;2.30;;;9.10;99.90;;;;;;4915335;29;20452;-87
2021/01/23 12:04:03;;;;;;;2.40;2.10;;;9.30;99.90;;;;;;4915256;29;20876;-86
2021/01/23 12:06:29;;;;;;;2.30;2.10;;;9.50;99.90;;;;;;4914372;29;20992;-86
2021/01/23 12:08:54;;;;;;;4.00;2.50;;;9.60;99.90;;;;;;4914230;29;20192;-85
2021/01/23 12:11:20;;;;;;;5.53;2.50;;;9.80;99.90;;;;;;4919190;29;20212;-85
2021/01/23 12:13:46;;;;;;;3.50;2.60;;;10.00;99.90;;;;;;4901937;29;20240;-87
2021/01/23 12:16:11;;;;;;;3.40;2.40;;;10.00;99.90;;;;;;4915423;29;20280;-85
2021/01/23 12:18:37;;;;;;;5.30;2.90;;;9.90;99.90;;;;;;4882962;29;20192;-86
2021/01/23 12:21:03;;;;;;;5.93;2.60;;;9.80;99.90;;;;;;4918065;29;20220;-85
2021/01/23 12:23:28;;;;;;;7.90;2.40;;;9.60;99.90;;;;;;4901095;29;20253;-86
2021/01/23 12:25:54;;;;;;;2.17;1.97;;;9.60;99.90;;;;;;4900199;29;20436;-85
2021/01/23 12:28:20;;;;;;;2.90;2.20;;;9.50;99.90;;;;;;4867236;29;20216;-85
2021/01/23 12:30:45;;;;;;;4.50;2.30;;;9.50;99.90;;;;;;4911799;29;20494;-86
2021/01/23 12:33:11;;;;;;;3.20;2.30;;;9.60;99.90;;;;;;4915911;29;20481;-86
2021/01/23 12:35:36;;;;;;;5.77;2.23;;;9.60;99.90;;;;;;4897948;29;20228;-87
2021/01/23 12:38:02;;;;;;;3.10;2.03;;;9.40;99.90;;;;;;4917700;29;20678;-87
2021/01/23 12:40:31;;;;;;;3.70;2.37;;;9.30;99.90;;;;;;4905955;29;20204;-85
2021/01/23 12:42:56;;;;;;;3.97;2.17;;;9.10;99.90;;;;;;4916312;29;20565;-85
2021/01/23 12:45:22;;;;;;;3.90;1.90;;;9.00;99.90;;;;;;4911832;29;20428;-84
2021/01/23 12:47:48;;;;;;;3.47;1.97;;;8.90;99.90;;;;;;4903471;29;20191;-86
2021/01/23 12:50:14;;;;;;;2.10;1.60;;;8.90;99.90;;;;;;4901371;29;20184;-85
2021/01/23 12:52:40;;;;;;;2.53;1.70;;;8.80;99.90;;;;;;4886513;29;20205;-85
2021/01/23 12:55:07;;;;;;;2.30;1.70;;;9.00;99.90;;;;;;4892725;29;20540;-87
2021/01/23 12:57:46;;;;;;;2.13;1.60;;;9.30;99.90;;;;;;4910014;29;20203;-86
2021/01/23 13:00:12;;;;;;;5.20;2.93;;;9.50;99.90;;;;;;4910345;29;20432;-87
2021/01/23 13:02:38;;;;;;;2.60;1.73;;;9.80;99.90;;;;;;4910010;29;20842;-87
2021/01/23 13:05:05;;;;;;;2.37;1.73;;;10.10;99.90;;;;;;4899143;29;20425;-87
2021/01/23 13:07:31;;;;;;;2.10;1.80;;;10.10;99.90;;;;;;4912572;29;20451;-85
2021/01/23 13:09:59;;;;;;;3.60;1.80;;;10.10;99.90;;;;;;4912256;29;20436;-87
2021/01/23 13:12:24;;;;;;;2.27;1.30;;;10.10;99.90;;;;;;4913451;29;20216;-86
2021/01/23 13:14:51;;;;;;;2.27;1.43;;;10.30;99.90;;;;;;4900335;29;20484;-87
2021/01/23 13:17:16;;;;;;;2.83;1.40;;;10.20;99.90;;;;;;4896143;29;20581;-84
2021/01/23 13:19:43;;;;;;;2.00;1.60;;;10.10;99.90;;;;;;4913398;29;21352;-86
2021/01/23 13:22:09;;;;;;;3.03;1.70;;;9.90;99.90;;;;;;4911158;29;20192;-85
2021/01/23 13:24:34;;;;;;;3.40;1.67;;;9.90;99.90;;;;;;4896176;29;20492;-83
2021/01/23 13:27:00;;;;;;;1.93;1.50;;;10.10;99.90;;;;;;4895887;29;20191;-84
2021/01/23 13:29:26;;;;;;;2.30;1.63;;;10.10;99.90;;;;;;4911515;29;20204;-85
2021/01/23 13:31:51;;;;;;;1.63;1.53;;;10.20;99.90;;;;;;4890317;29;20641;-86
2021/01/23 13:34:17;;;;;;;4.80;1.70;;;10.30;99.90;;;;;;4913717;29;20205;-85
2021/01/23 13:36:45;;;;;;;2.60;1.80;;;10.20;99.90;;;;;;4899561;29;20244;-87
2021/01/23 13:39:10;;;;;;;2.37;1.70;;;10.00;99.90;;;;;;4894348;29;20244;-86
2021/01/23 13:41:38;;;;;;;2.60;2.00;;;9.90;99.90;;;;;;4907780;29;20444;-88
2021/01/23 13:44:04;;;;;;;2.53;2.00;;;9.60;99.90;;;;;;4893001;29;20700;-83
2021/01/23 13:46:30;;;;;;;4.47;2.00;;;9.40;99.90;;;;;;4882713;29;20448;-87
2021/01/23 13:49:03;;;;;;;2.57;2.00;;;9.30;99.90;;;;;;4895302;29;20449;-84
2021/01/23 13:51:39;;;;;;;2.37;1.70;;;9.30;99.90;;;;;;4880532;29;20216;-87
2021/01/23 13:54:14;;;;;;;2.07;1.70;;;9.40;99.90;;;;;;4910408;29;20477;-88
2021/01/23 13:56:51;;;;;;;2.03;1.70;;;9.60;99.90;;;;;;4898227;29;20563;-89
2021/01/23 13:59:30;;;;;;;3.33;2.20;;;9.70;99.90;;;;;;4913003;29;20877;-87
2021/01/23 14:01:56;;;;;;;2.23;2.00;;;9.80;99.90;;;;;;4912668;29;20448;-89
2021/01/23 14:04:24;;;;;;;2.20;2.00;;;9.90;99.90;;;;;;4897039;29;20558;-88
2021/01/23 14:06:53;;;;;;;5.40;1.90;;;10.10;99.90;;;;;;4892222;29;20215;-88
2021/01/23 14:09:21;;;;;;;2.60;2.27;;;10.10;99.90;;;;;;4881749;29;20453;-87
2021/01/23 14:11:57;;;;;;;2.20;2.00;;;10.10;99.90;;;;;;4896240;29;20437;-87
2021/01/23 14:14:29;;;;;;;2.90;2.33;;;9.90;99.90;;;;;;4893052;29;20483;-87
2021/01/23 14:17:36;;;;;;;;;;;;;;;;;;;;;
2021/01/23 14:20:08;;;;;;;2.90;2.70;;;9.10;99.90;;;;;;4910563;29;20541;-88
2021/01/23 14:22:37;;;;;;;5.77;2.33;;;9.00;99.90;;;;;;4896313;29;20871;-85
2021/01/23 14:25:19;;;;;;;;;;;;;;;;;;;;;
2021/01/23 14:28:20;;;;;;;3.10;2.43;;;8.90;99.90;;;;;;4917597;29;20523;-88
2021/01/23 14:31:38;;;;;;;5.07;2.70;;;8.90;99.90;;;;;;4900340;29;20436;-86
2021/01/23 14:37:12;;;;;;;2.20;1.90;;;8.80;99.90;;;;;;4899765;29;20830;-87
2021/01/23 14:39:46;;;;;;;6.40;2.33;;;8.70;99.90;;;;;;4900587;29;20562;-89
2021/01/23 14:42:16;;;;;;;2.70;1.80;;;8.70;99.90;;;;;;4898672;29;20448;-87
2021/01/23 14:47:47;;;;;;;;;;;;;;;;;;;;;
2021/01/23 14:51:09;;;;;;;;;;;;;;;;;;;;;
2021/01/23 14:53:43;;;;;;;1.90;1.70;;;8.20;99.90;;;;;;4927370;29;20546;-89
2021/01/23 14:56:09;;;;;;;2.10;1.90;;;8.20;99.90;;;;;;4909149;29;20478;-88
2021/01/23 14:59:00;;;;;;;2.47;1.57;;;8.10;99.90;;;;;;4911098;29;20468;-88
2021/01/23 15:01:40;;;;;;;2.60;1.73;;;7.80;99.90;;;;;;4912282;29;20201;-89
2021/01/23 15:04:29;;;;;;;2.30;1.80;;;7.70;99.90;;;;;;4906055;29;20542;-86
2021/01/23 15:06:54;;;;;;;2.50;1.90;;;7.70;99.90;;;;;;4909092;29;20451;-87
2021/01/23 15:09:32;;;;;;;3.50;1.93;;;7.80;99.90;;;;;;4912773;29;20447;-89
2021/01/23 15:12:20;;;;;;;2.27;1.60;;;7.80;99.90;;;;;;4917886;29;20191;-90
2021/01/23 15:14:48;;;;;;;4.03;2.33;;;7.70;99.90;;;;;;4899123;29;20547;-86
2021/01/23 15:17:51;;;;;;;3.77;2.13;;;7.80;99.90;;;;;;4911417;29;20432;-88
2021/01/23 15:21:08;;;;;;;;;;;;;;;;;;;;;
2021/01/23 15:24:02;;;;;;;2.27;1.70;;;7.70;99.90;;;;;;4910377;29;20494;-86
2021/01/23 15:26:36;;;;;;;2.20;1.93;;;7.60;99.90;;;;;;4926520;29;20484;-88
2021/01/23 15:29:06;;;;;;;4.33;2.40;;;7.60;99.90;;;;;;4911798;29;20459;-86
2021/01/23 15:31:34;;;;;;;8.23;2.67;;;7.60;99.90;;;;;;4911483;29;20496;-87
2021/01/23 15:34:03;;;;;;;5.00;2.53;;;7.50;99.90;;;;;;4912031;29;20451;-86
2021/01/23 15:36:52;;;;;;;2.90;2.20;;;7.60;99.90;;;;;;4901378;29;20452;-86
2021/01/23 15:39:44;;;;;;;4.03;1.80;;;7.50;99.90;;;;;;4915769;29;20432;-87
2021/01/23 15:42:35;;;;;;;2.30;1.90;;;7.50;99.90;;;;;;4915634;29;20459;-88
2021/01/23 15:45:13;;;;;;;2.97;2.17;;;7.40;99.90;;;;;;4903600;29;20530;-88
2021/01/23 15:48:14;;;;;;;2.90;2.30;;;7.30;99.90;;;;;;4912555;29;20451;-88
2021/01/23 15:54:23;;;;;;;3.10;2.30;;;7.10;99.90;;;;;;4942519;23;20813;-86
2021/01/23 16:00:49;;;;;;;3.07;2.43;;;7.00;99.90;;;;;;4931834;29;20436;-86
2021/01/23 16:03:23;;;;;;;5.20;2.80;;;6.90;99.90;;;;;;4919884;29;20490;-85
2021/01/23 16:05:51;;;;;;;5.00;2.77;;;6.80;99.90;;;;;;4916023;29;20638;-86
2021/01/23 16:08:23;;;;;;;7.57;2.50;;;6.80;99.90;;;;;;4919556;29;20447;-86
2021/01/23 16:10:48;;;;;;;3.10;2.60;;;6.70;99.90;;;;;;4919386;29;20482;-88
2021/01/23 16:13:23;;;;;;;3.30;2.50;;;6.60;99.90;;;;;;4902014;29;20456;-86
2021/01/23 16:15:51;;;;;;;3.10;2.67;;;6.60;99.90;;;;;;4899966;29;20201;-86
2021/01/23 16:18:22;;;;;;;3.17;2.80;;;6.60;99.90;;;;;;4888914;29;20562;-88
2021/01/23 16:21:09;;;;;;;;;;;;;;;;;;;;;
2021/01/23 16:23:49;;;;;;;4.67;3.20;;;6.50;99.90;;;;;;4916663;29;20491;-86
2021/01/23 16:26:27;;;;;;;4.03;3.10;;;6.50;99.90;;;;;;4905790;29;20536;-86